KELY/ELY METAR and TAF weather

Enter ICAO airport designator
Station Type Date Time Source
KELY METAR 2020/01/28 11:53 UTC NOAA

KELY 281153Z AUTO 17010KT 10SM CLR M06/M07 A3025 RMK AO2 SLP251 T10561072 11006 21056 56014


Station Type Date Time Source
KELY Decoded METAR 2020/01/28 11:53 UTC NOAA

ELY AIRPORT (YELLAND FIELD), NV, United States (KELY) 39-18N 114-51W 1906M
Jan 28, 2020 - 06:53 AM EST / 2020.01.28 1153 UTC
Wind: from the S (170 degrees) at 12 MPH (10 KT):0
Visibility: 10 mile(s):0
Sky conditions: clear
Temperature: 21.9 F (-5.6 C)
Windchill: 10 F (-12 C):1
Dew Point: 19.0 F (-7.2 C)
Relative Humidity: 88%
Pressure (altimeter): 30.25 in. Hg (1024 hPa)
Pressure tendency: 0.04 inches (1.4 hPa) lower than three hours ago
ob: KELY 281153Z AUTO 17010KT 10SM CLR M06/M07 A3025 RMK AO2 SLP251 T10561072 11006 21056 56014
cycle: 12

Station Type Date Time Source
KELY TAF 2020/01/28 12:22 UTC NOAA

TAF KELY 281120Z 2812/2912 VRB03KT P6SM SCT100 BKN200
FM281700 VRB03KT P6SM BKN090 OVC150
FM282100 25006KT P6SM OVC150
FM290000 29005KT P6SM OVC120
FM290600 31005KT P6SM VCSH BKN080 OVC120

Example: see airport list